Time;durP1;ratioP1;P1;durP2;ratioP2;P2;SDS_P1;SDS_P2;PMS_P1;PMS_P2;Temp;Humidity;BMP_temperature;BMP_pressure;BME280_temperature;BME280_humidity;BME280_pressure;Samples;Min_cycle;Max_cycle;Signal;HPM_P1;HPM_P2
2023/08/08 00:01:35;;;;;;;0.10;0.10;;;;;;;;;;5095104;28;20136;-59
2023/08/08 00:04:02;;;;;;;0.10;0.10;;;;;;;;;;5094945;28;20417;-60
2023/08/08 00:06:29;;;;;;;0.10;0.10;;;;;;;;;;5095068;28;20047;-60
2023/08/08 00:08:56;;;;;;;0.10;0.10;;;;;;;;;;5095051;28;20040;-60
2023/08/08 00:11:23;;;;;;;0.10;0.10;;;;;;;;;;5095014;28;20040;-59
2023/08/08 00:13:50;;;;;;;0.00;0.00;;;;;;;;;;5094917;28;20059;-59
2023/08/08 00:16:19;;;;;;;0.10;0.10;;;;;;;;;;5094853;28;20043;-59
2023/08/08 00:18:46;;;;;;;0.00;0.00;;;;;;;;;;5095765;28;20320;-60
2023/08/08 00:21:13;;;;;;;0.10;0.10;;;;;;;;;;5094240;28;20086;-59
2023/08/08 00:23:40;;;;;;;0.00;0.00;;;;;;;;;;5094643;28;20040;-59
2023/08/08 00:26:07;;;;;;;0.10;0.10;;;;;;;;;;5094809;28;20044;-59
2023/08/08 00:28:34;;;;;;;0.10;0.10;;;;;;;;;;5094617;28;20064;-59
2023/08/08 00:31:01;;;;;;;0.10;0.10;;;;;;;;;;5094632;28;20076;-59
2023/08/08 00:33:30;;;;;;;0.00;0.00;;;;;;;;;;5110199;28;20040;-59
2023/08/08 00:35:57;;;;;;;0.10;0.10;;;;;;;;;;5094537;28;20040;-59
2023/08/08 00:38:24;;;;;;;0.10;0.10;;;;;;;;;;5094572;28;20060;-59
2023/08/08 00:40:51;;;;;;;0.00;0.00;;;;;;;;;;5093048;28;20549;-59
2023/08/08 00:43:19;;;;;;;0.10;0.10;;;;;;;;;;5094311;28;20072;-59
2023/08/08 00:45:46;;;;;;;0.10;0.10;;;;;;;;;;5094381;28;20109;-59
2023/08/08 00:48:13;;;;;;;0.00;0.00;;;;;;;;;;5094554;28;20098;-59
2023/08/08 00:50:43;;;;;;;0.10;0.10;;;;;;;;;;5094112;28;20048;-59
2023/08/08 00:53:10;;;;;;;0.00;0.00;;;;;;;;;;5094151;28;20458;-59
2023/08/08 00:55:37;;;;;;;0.10;0.10;;;;;;;;;;5094152;28;20048;-59
2023/08/08 00:58:04;;;;;;;0.10;0.10;;;;;;;;;;5076375;28;20135;-59
2023/08/08 01:00:31;;;;;;;0.10;0.10;;;;;;;;;;5092413;28;20052;-59
2023/08/08 01:02:58;;;;;;;0.10;0.10;;;;;;;;;;5094074;28;20051;-59
2023/08/08 01:05:25;;;;;;;0.05;0.05;;;;;;;;;;5109720;28;20051;-59
2023/08/08 01:07:55;;;;;;;0.00;0.00;;;;;;;;;;5094133;28;20044;-59
2023/08/08 01:10:23;;;;;;;0.00;0.00;;;;;;;;;;5094544;28;20044;-59
2023/08/08 01:12:51;;;;;;;0.10;0.10;;;;;;;;;;5093098;28;20048;-59
2023/08/08 01:15:18;;;;;;;0.10;0.10;;;;;;;;;;5093645;28;20527;-59
2023/08/08 01:17:46;;;;;;;0.10;0.10;;;;;;;;;;5109334;28;20044;-60
2023/08/08 01:20:16;;;;;;;0.00;0.00;;;;;;;;;;5093558;28;20119;-60
2023/08/08 01:22:44;;;;;;;0.10;0.10;;;;;;;;;;5092430;28;20471;-59
2023/08/08 01:25:13;;;;;;;0.13;0.13;;;;;;;;;;5093563;28;20071;-60
2023/08/08 01:27:40;;;;;;;0.10;0.10;;;;;;;;;;5093408;28;20067;-59
2023/08/08 01:30:08;;;;;;;0.10;0.10;;;;;;;;;;5093285;28;20075;-59
2023/08/08 01:32:36;;;;;;;0.00;0.00;;;;;;;;;;5091613;28;20051;-59
2023/08/08 01:35:03;;;;;;;0.10;0.10;;;;;;;;;;5093332;28;20062;-59
2023/08/08 01:37:31;;;;;;;0.08;0.08;;;;;;;;;;5092301;28;20446;-60
2023/08/08 01:39:59;;;;;;;0.10;0.10;;;;;;;;;;5093581;28;20044;-59
2023/08/08 01:42:27;;;;;;;0.10;0.10;;;;;;;;;;5093434;28;20147;-59
2023/08/08 01:44:55;;;;;;;0.08;0.08;;;;;;;;;;5093173;28;20083;-59
2023/08/08 01:47:22;;;;;;;0.10;0.10;;;;;;;;;;5093135;28;20048;-59
2023/08/08 01:49:49;;;;;;;0.10;0.10;;;;;;;;;;5092932;28;20044;-59
2023/08/08 01:52:18;;;;;;;0.10;0.10;;;;;;;;;;5092790;28;20062;-59
2023/08/08 01:54:45;;;;;;;0.10;0.10;;;;;;;;;;5091554;28;20058;-59
2023/08/08 01:57:12;;;;;;;0.00;0.00;;;;;;;;;;5092870;28;20059;-59
2023/08/08 01:59:40;;;;;;;0.00;0.00;;;;;;;;;;5090824;28;20055;-59
2023/08/08 02:02:07;;;;;;;0.10;0.10;;;;;;;;;;5092621;28;20143;-59
2023/08/08 02:04:34;;;;;;;0.00;0.00;;;;;;;;;;5092920;28;20048;-59
2023/08/08 02:07:02;;;;;;;0.10;0.10;;;;;;;;;;5091767;28;20131;-59
2023/08/08 02:09:29;;;;;;;0.10;0.10;;;;;;;;;;5092471;28;20072;-59
2023/08/08 02:11:56;;;;;;;0.10;0.10;;;;;;;;;;5092349;28;20080;-59
2023/08/08 02:14:23;;;;;;;0.10;0.10;;;;;;;;;;5092506;28;20135;-59
2023/08/08 02:16:51;;;;;;;0.10;0.10;;;;;;;;;;5108240;28;20052;-59
2023/08/08 02:19:18;;;;;;;0.10;0.10;;;;;;;;;;5091259;28;20418;-59
2023/08/08 02:21:46;;;;;;;0.10;0.10;;;;;;;;;;5091109;28;20487;-59
2023/08/08 02:24:13;;;;;;;0.10;0.10;;;;;;;;;;5108129;28;20047;-59
2023/08/08 02:26:40;;;;;;;0.15;0.15;;;;;;;;;;5092420;28;20119;-59
2023/08/08 02:29:09;;;;;;;0.10;0.10;;;;;;;;;;5092304;28;20048;-59
2023/08/08 02:31:36;;;;;;;0.10;0.10;;;;;;;;;;5092283;28;20056;-59
2023/08/08 02:34:05;;;;;;;0.20;0.20;;;;;;;;;;5092275;28;20040;-59
2023/08/08 02:36:33;;;;;;;0.10;0.10;;;;;;;;;;5092969;28;20048;-58
2023/08/08 02:39:00;;;;;;;0.00;0.00;;;;;;;;;;5091509;28;20154;-59
2023/08/08 02:41:27;;;;;;;0.38;0.10;;;;;;;;;;5092020;28;20048;-58
2023/08/08 02:43:54;;;;;;;0.10;0.10;;;;;;;;;;5092182;28;20036;-58
2023/08/08 02:46:21;;;;;;;0.10;0.10;;;;;;;;;;5075027;28;20107;-58
2023/08/08 02:48:48;;;;;;;0.10;0.10;;;;;;;;;;5090961;28;20067;-59
2023/08/08 02:51:17;;;;;;;0.10;0.10;;;;;;;;;;5091919;28;20109;-59
2023/08/08 02:53:44;;;;;;;0.10;0.10;;;;;;;;;;5090859;28;20040;-59
2023/08/08 02:56:11;;;;;;;0.10;0.10;;;;;;;;;;5090810;28;20040;-58
2023/08/08 02:58:41;;;;;;;0.05;0.05;;;;;;;;;;5092004;28;20044;-58
2023/08/08 03:01:08;;;;;;;0.20;0.20;;;;;;;;;;5090490;28;20076;-59
2023/08/08 03:03:37;;;;;;;0.20;0.20;;;;;;;;;;5090666;28;20091;-59
2023/08/08 03:06:04;;;;;;;0.10;0.10;;;;;;;;;;5090678;28;20415;-59
2023/08/08 03:08:33;;;;;;;0.10;0.10;;;;;;;;;;5090613;28;20147;-59
2023/08/08 03:11:00;;;;;;;0.10;0.10;;;;;;;;;;5091453;28;20067;-59
2023/08/08 03:13:29;;;;;;;0.13;0.13;;;;;;;;;;5094869;28;20095;-59
2023/08/08 03:15:57;;;;;;;0.10;0.10;;;;;;;;;;5094991;28;20082;-58
2023/08/08 03:18:25;;;;;;;0.10;0.10;;;;;;;;;;5078058;28;20121;-59
2023/08/08 03:20:53;;;;;;;0.10;0.10;;;;;;;;;;5078748;28;20093;-59
2023/08/08 03:23:20;;;;;;;0.10;0.10;;;;;;;;;;5111441;28;20052;-59
2023/08/08 03:25:50;;;;;;;0.10;0.10;;;;;;;;;;5095033;28;20044;-59
2023/08/08 03:28:20;;;;;;;0.10;0.10;;;;;;;;;;5094682;28;20048;-59
2023/08/08 03:30:48;;;;;;;0.20;0.20;;;;;;;;;;5077871;28;20056;-58
2023/08/08 03:33:15;;;;;;;0.28;0.28;;;;;;;;;;5094736;28;20062;-59
2023/08/08 03:35:43;;;;;;;0.10;0.10;;;;;;;;;;5094850;28;20390;-59
2023/08/08 03:38:10;;;;;;;0.10;0.10;;;;;;;;;;5094325;28;20047;-59
2023/08/08 03:40:37;;;;;;;0.10;0.10;;;;;;;;;;5094334;28;20095;-58
2023/08/08 03:43:06;;;;;;;0.10;0.10;;;;;;;;;;5094834;28;20118;-59
2023/08/08 03:45:34;;;;;;;0.20;0.20;;;;;;;;;;5095542;28;20499;-59
2023/08/08 03:48:01;;;;;;;0.10;0.10;;;;;;;;;;5094204;28;20391;-59
2023/08/08 03:50:28;;;;;;;0.20;0.20;;;;;;;;;;5094317;28;20032;-58
2023/08/08 03:52:55;;;;;;;0.20;0.20;;;;;;;;;;5093932;28;20051;-58
2023/08/08 03:55:23;;;;;;;0.10;0.10;;;;;;;;;;5111424;28;20131;-58
2023/08/08 03:57:51;;;;;;;0.20;0.20;;;;;;;;;;5094073;28;20050;-58
2023/08/08 04:00:21;;;;;;;0.10;0.10;;;;;;;;;;5093959;28;20048;-59
2023/08/08 04:02:48;;;;;;;0.20;0.20;;;;;;;;;;5095473;28;20118;-59
2023/08/08 04:05:15;;;;;;;0.20;0.20;;;;;;;;;;5095231;28;20417;-59
2023/08/08 04:07:41;;;;;;;0.10;0.10;;;;;;;;;;5093950;28;20075;-58
2023/08/08 04:10:09;;;;;;;0.20;0.20;;;;;;;;;;5095206;28;20040;-59
2023/08/08 04:12:36;;;;;;;0.20;0.20;;;;;;;;;;5093764;28;20434;-59
2023/08/08 04:15:03;;;;;;;0.10;0.10;;;;;;;;;;5094899;28;20136;-58
2023/08/08 04:17:33;;;;;;;0.20;0.20;;;;;;;;;;5093579;28;20046;-58
2023/08/08 04:20:00;;;;;;;0.10;0.10;;;;;;;;;;5095016;28;20542;-58
2023/08/08 04:22:27;;;;;;;0.20;0.20;;;;;;;;;;5094233;28;20502;-59
2023/08/08 04:24:54;;;;;;;0.20;0.20;;;;;;;;;;5095073;28;20070;-58
2023/08/08 04:27:21;;;;;;;0.30;0.30;;;;;;;;;;5094711;28;20109;-58
2023/08/08 04:29:48;;;;;;;0.30;0.30;;;;;;;;;;5094715;28;20071;-59
2023/08/08 04:32:15;;;;;;;0.20;0.20;;;;;;;;;;5095177;28;20066;-58
2023/08/08 04:34:44;;;;;;;0.30;0.30;;;;;;;;;;5094844;28;20040;-58
2023/08/08 04:37:11;;;;;;;0.30;0.30;;;;;;;;;;5094740;28;20055;-59
2023/08/08 04:39:38;;;;;;;0.30;0.30;;;;;;;;;;5094289;28;20044;-59
2023/08/08 04:42:05;;;;;;;0.30;0.30;;;;;;;;;;5110594;28;20136;-59
2023/08/08 04:44:32;;;;;;;0.20;0.20;;;;;;;;;;5092847;28;20044;-59
2023/08/08 04:46:59;;;;;;;0.30;0.30;;;;;;;;;;5093313;28;20056;-58
2023/08/08 04:49:26;;;;;;;0.30;0.30;;;;;;;;;;5094206;28;20093;-59
2023/08/08 04:51:55;;;;;;;0.20;0.20;;;;;;;;;;5094743;28;20052;-58
2023/08/08 04:54:22;;;;;;;0.30;0.30;;;;;;;;;;5094236;28;20044;-59
2023/08/08 04:56:49;;;;;;;0.40;0.40;;;;;;;;;;5093993;28;20050;-58
2023/08/08 04:59:16;;;;;;;0.20;0.20;;;;;;;;;;5093959;28;20056;-59
2023/08/08 05:01:43;;;;;;;0.20;0.20;;;;;;;;;;5094200;28;20032;-59
2023/08/08 05:04:10;;;;;;;0.30;0.30;;;;;;;;;;5094240;28;20071;-59
2023/08/08 05:06:37;;;;;;;0.30;0.30;;;;;;;;;;5093979;28;20117;-58
2023/08/08 05:09:09;;;;;;;0.30;0.30;;;;;;;;;;5094177;28;20094;-58
2023/08/08 05:11:36;;;;;;;0.28;0.28;;;;;;;;;;5093795;28;20098;-58
2023/08/08 05:14:03;;;;;;;0.30;0.30;;;;;;;;;;5094154;28;20044;-58
2023/08/08 05:16:30;;;;;;;0.20;0.20;;;;;;;;;;5093634;28;20109;-58
2023/08/08 05:18:58;;;;;;;0.20;0.20;;;;;;;;;;5093708;28;20044;-58
2023/08/08 05:21:25;;;;;;;0.20;0.20;;;;;;;;;;5093790;28;20036;-59
2023/08/08 05:23:52;;;;;;;0.20;0.20;;;;;;;;;;5093129;28;20071;-59
2023/08/08 05:26:20;;;;;;;0.20;0.20;;;;;;;;;;5093476;28;20051;-59
2023/08/08 05:28:48;;;;;;;0.20;0.20;;;;;;;;;;5093552;28;20079;-58
2023/08/08 05:31:15;;;;;;;0.20;0.20;;;;;;;;;;5093766;28;20101;-59
2023/08/08 05:33:42;;;;;;;0.20;0.20;;;;;;;;;;5092793;28;20040;-62
2023/08/08 05:36:09;;;;;;;0.10;0.10;;;;;;;;;;5094002;28;20175;-58
2023/08/08 05:38:36;;;;;;;0.20;0.20;;;;;;;;;;5093803;28;20083;-58
2023/08/08 05:41:03;;;;;;;0.10;0.10;;;;;;;;;;5093479;28;20148;-59
2023/08/08 05:43:32;;;;;;;0.20;0.20;;;;;;;;;;5093458;28;20135;-58
2023/08/08 05:45:59;;;;;;;0.20;0.20;;;;;;;;;;5092840;28;20048;-58
2023/08/08 05:48:26;;;;;;;0.10;0.10;;;;;;;;;;5092990;28;20538;-59
2023/08/08 05:50:53;;;;;;;0.10;0.10;;;;;;;;;;5091728;28;20044;-59
2023/08/08 05:53:20;;;;;;;0.22;0.22;;;;;;;;;;5092767;28;20048;-59
2023/08/08 05:55:47;;;;;;;0.20;0.20;;;;;;;;;;5093117;28;20085;-59
2023/08/08 05:58:14;;;;;;;0.10;0.10;;;;;;;;;;5092759;28;20051;-58
2023/08/08 06:00:43;;;;;;;0.20;0.20;;;;;;;;;;5092856;28;20097;-59
2023/08/08 06:03:10;;;;;;;0.20;0.20;;;;;;;;;;5092571;28;20047;-59
2023/08/08 06:05:38;;;;;;;0.20;0.20;;;;;;;;;;5092588;28;20048;-59
2023/08/08 06:08:11;;;;;;;0.20;0.20;;;;;;;;;;5092512;28;20474;-59
2023/08/08 06:10:38;;;;;;;0.20;0.20;;;;;;;;;;5092533;28;20048;-59
2023/08/08 06:13:05;;;;;;;0.20;0.20;;;;;;;;;;5092515;28;20139;-59
2023/08/08 06:15:32;;;;;;;0.10;0.10;;;;;;;;;;5093003;28;20040;-59
2023/08/08 06:18:01;;;;;;;0.10;0.10;;;;;;;;;;5092812;28;20089;-59
2023/08/08 06:20:29;;;;;;;0.10;0.10;;;;;;;;;;5092499;28;20090;-59
2023/08/08 06:22:56;;;;;;;0.00;0.00;;;;;;;;;;5092418;28;20423;-59
2023/08/08 06:25:23;;;;;;;0.03;0.03;;;;;;;;;;5092619;28;20465;-59
2023/08/08 06:27:50;;;;;;;0.00;0.00;;;;;;;;;;5092449;28;20161;-59
2023/08/08 06:30:17;;;;;;;0.00;0.00;;;;;;;;;;5092462;28;20347;-59
2023/08/08 06:32:44;;;;;;;0.10;0.10;;;;;;;;;;5092336;28;20044;-61
2023/08/08 06:35:16;;;;;;;0.00;0.00;;;;;;;;;;5092289;28;20139;-58
2023/08/08 06:37:44;;;;;;;0.00;0.00;;;;;;;;;;5092038;28;20040;-59
2023/08/08 06:40:12;;;;;;;0.00;0.00;;;;;;;;;;5091968;28;20082;-58
2023/08/08 06:42:58;;;;;;;0.00;0.00;;;;;;;;;;5091174;28;20051;-58
2023/08/08 06:45:43;;;;;;;0.00;0.00;;;;;;;;;;5092443;28;20344;-58
2023/08/08 06:48:10;;;;;;;0.00;0.00;;;;;;;;;;5090978;28;20040;-58
2023/08/08 06:50:39;;;;;;;0.00;0.00;;;;;;;;;;5092539;28;20197;-60
2023/08/08 06:53:06;;;;;;;0.20;0.10;;;;;;;;;;5091530;28;20067;-58
2023/08/08 06:55:33;;;;;;;0.00;0.00;;;;;;;;;;5092069;28;20398;-60
2023/08/08 06:58:00;;;;;;;0.10;0.10;;;;;;;;;;5092128;28;20387;-60
2023/08/08 07:00:28;;;;;;;0.00;0.00;;;;;;;;;;5091523;28;20044;-60
2023/08/08 07:02:55;;;;;;;0.08;0.08;;;;;;;;;;5091232;28;20052;-60
2023/08/08 07:05:23;;;;;;;0.13;0.13;;;;;;;;;;5091456;28;20105;-60
2023/08/08 07:07:52;;;;;;;0.10;0.10;;;;;;;;;;5091298;28;20047;-60
2023/08/08 07:10:19;;;;;;;0.20;0.20;;;;;;;;;;5091800;28;20395;-60
2023/08/08 07:12:46;;;;;;;0.10;0.10;;;;;;;;;;5091422;28;20047;-58
2023/08/08 07:15:13;;;;;;;0.30;0.30;;;;;;;;;;5106734;28;20044;-60
2023/08/08 07:17:40;;;;;;;0.10;0.10;;;;;;;;;;5091462;28;20067;-58
2023/08/08 07:20:08;;;;;;;0.10;0.10;;;;;;;;;;5090187;28;20075;-58
2023/08/08 07:22:35;;;;;;;0.00;0.00;;;;;;;;;;5091374;28;20051;-58
2023/08/08 07:25:05;;;;;;;0.10;0.10;;;;;;;;;;5091275;28;20127;-58
2023/08/08 07:27:32;;;;;;;0.03;0.03;;;;;;;;;;5090288;28;20072;-59
2023/08/08 07:30:01;;;;;;;0.00;0.00;;;;;;;;;;5091839;28;20131;-58
2023/08/08 07:32:28;;;;;;;0.00;0.00;;;;;;;;;;5091289;28;20048;-59
2023/08/08 07:34:55;;;;;;;0.00;0.00;;;;;;;;;;5091220;28;20100;-58
2023/08/08 07:37:22;;;;;;;0.00;0.00;;;;;;;;;;5090900;28;20044;-58
2023/08/08 07:39:51;;;;;;;0.00;0.00;;;;;;;;;;5091144;28;20486;-58
2023/08/08 07:42:19;;;;;;;0.00;0.00;;;;;;;;;;5091251;28;20052;-58
2023/08/08 07:48:40;;;;;;;0.00;0.00;;;;;;;;;;5091439;28;20034;-58
2023/08/08 07:51:07;;;;;;;0.00;0.00;;;;;;;;;;5090127;28;20044;-58
2023/08/08 07:53:36;;;;;;;0.00;0.00;;;;;;;;;;5091187;28;20123;-58
2023/08/08 07:56:03;;;;;;;0.00;0.00;;;;;;;;;;5091333;28;20044;-58
2023/08/08 07:58:32;;;;;;;0.00;0.00;;;;;;;;;;5094128;28;20048;-58
2023/08/08 08:01:00;;;;;;;0.10;0.10;;;;;;;;;;5094885;28;20105;-58
2023/08/08 08:03:28;;;;;;;0.00;0.00;;;;;;;;;;5093173;28;20066;-58
2023/08/08 08:05:55;;;;;;;0.00;0.00;;;;;;;;;;5094738;28;20537;-58
2023/08/08 08:08:24;;;;;;;0.00;0.00;;;;;;;;;;5094595;28;20066;-58
2023/08/08 08:10:54;;;;;;;0.00;0.00;;;;;;;;;;5092716;28;20131;-58
2023/08/08 08:13:21;;;;;;;0.00;0.00;;;;;;;;;;5094336;28;20044;-57
2023/08/08 08:15:50;;;;;;;0.00;0.00;;;;;;;;;;5094408;28;20110;-58
2023/08/08 08:18:17;;;;;;;0.00;0.00;;;;;;;;;;5094661;28;20040;-58
2023/08/08 08:20:44;;;;;;;0.00;0.00;;;;;;;;;;5094343;28;20513;-57
2023/08/08 08:23:12;;;;;;;0.00;0.00;;;;;;;;;;5094044;28;20063;-58
2023/08/08 08:25:39;;;;;;;0.00;0.00;;;;;;;;;;5094198;28;20510;-57
2023/08/08 08:28:06;;;;;;;0.00;0.00;;;;;;;;;;5094310;28;20048;-57
2023/08/08 08:34:28;;;;;;;0.00;0.00;;;;;;;;;;5094537;28;20039;-58
2023/08/08 08:36:56;;;;;;;0.00;0.00;;;;;;;;;;5094530;28;20093;-58
2023/08/08 08:39:23;;;;;;;0.00;0.00;;;;;;;;;;5094279;28;20054;-59
2023/08/08 08:41:50;;;;;;;0.00;0.00;;;;;;;;;;5094681;28;20129;-59
2023/08/08 08:44:18;;;;;;;0.00;0.00;;;;;;;;;;5092751;28;20048;-59
2023/08/08 08:46:45;;;;;;;0.00;0.00;;;;;;;;;;5094203;28;20417;-58
2023/08/08 08:49:12;;;;;;;0.00;0.00;;;;;;;;;;5094005;28;20052;-60
2023/08/08 08:51:40;;;;;;;0.00;0.00;;;;;;;;;;5094570;28;20043;-58
2023/08/08 08:54:07;;;;;;;0.00;0.00;;;;;;;;;;5093650;28;20089;-58
2023/08/08 08:56:34;;;;;;;0.00;0.00;;;;;;;;;;5093666;28;20070;-58
2023/08/08 08:59:02;;;;;;;0.00;0.00;;;;;;;;;;5093758;28;20483;-58
2023/08/08 09:01:29;;;;;;;0.00;0.00;;;;;;;;;;5093786;28;20086;-58
2023/08/08 09:03:56;;;;;;;0.00;0.00;;;;;;;;;;5093099;28;20532;-58
2023/08/08 09:06:24;;;;;;;0.00;0.00;;;;;;;;;;5093523;28;20513;-59
2023/08/08 09:08:52;;;;;;;0.00;0.00;;;;;;;;;;5093465;28;20040;-58
2023/08/08 09:11:19;;;;;;;0.00;0.00;;;;;;;;;;5093720;28;20055;-60
2023/08/08 09:13:46;;;;;;;0.00;0.00;;;;;;;;;;5093836;28;20051;-58
2023/08/08 09:16:14;;;;;;;0.00;0.00;;;;;;;;;;5093661;28;20548;-57
2023/08/08 09:18:42;;;;;;;0.00;0.00;;;;;;;;;;5093586;28;20040;-59
2023/08/08 09:21:09;;;;;;;0.00;0.00;;;;;;;;;;5093564;28;20536;-59
2023/08/08 09:23:37;;;;;;;0.00;0.00;;;;;;;;;;5093152;28;20040;-60
2023/08/08 09:26:06;;;;;;;0.00;0.00;;;;;;;;;;5093381;28;20044;-59
2023/08/08 09:28:33;;;;;;;0.00;0.00;;;;;;;;;;5093204;28;20476;-59
2023/08/08 09:31:00;;;;;;;0.00;0.00;;;;;;;;;;5093154;28;20040;-59
2023/08/08 09:33:29;;;;;;;0.00;0.00;;;;;;;;;;5093165;28;20048;-59
2023/08/08 09:35:56;;;;;;;0.00;0.00;;;;;;;;;;5093269;28;20047;-60
2023/08/08 09:38:24;;;;;;;0.00;0.00;;;;;;;;;;5093313;28;20058;-60
2023/08/08 09:40:52;;;;;;;0.00;0.00;;;;;;;;;;5093057;28;20040;-60
2023/08/08 09:43:20;;;;;;;0.00;0.00;;;;;;;;;;5092666;28;20051;-59
2023/08/08 09:45:48;;;;;;;0.00;0.00;;;;;;;;;;5092945;28;20123;-60
2023/08/08 09:48:15;;;;;;;0.00;0.00;;;;;;;;;;5092980;28;20135;-60
2023/08/08 09:50:42;;;;;;;0.00;0.00;;;;;;;;;;5092623;28;20059;-59
2023/08/08 09:53:09;;;;;;;0.00;0.00;;;;;;;;;;5092777;28;20135;-59
2023/08/08 09:55:36;;;;;;;0.00;0.00;;;;;;;;;;5091448;28;20051;-59
2023/08/08 09:58:04;;;;;;;0.00;0.00;;;;;;;;;;5092731;28;20071;-59
2023/08/08 10:00:34;;;;;;;0.00;0.00;;;;;;;;;;5092550;28;20052;-60
2023/08/08 10:03:01;;;;;;;0.00;0.00;;;;;;;;;;5093524;28;20082;-59
2023/08/08 10:05:30;;;;;;;0.10;0.10;;;;;;;;;;5092901;28;20047;-60
2023/08/08 10:07:57;;;;;;;0.00;0.00;;;;;;;;;;5093100;28;20516;-60
2023/08/08 10:10:24;;;;;;;0.00;0.00;;;;;;;;;;5092713;28;20039;-59
2023/08/08 10:12:51;;;;;;;0.00;0.00;;;;;;;;;;5092476;28;20052;-60
2023/08/08 10:15:18;;;;;;;0.00;0.00;;;;;;;;;;5092599;28;20129;-60
2023/08/08 10:17:47;;;;;;;0.00;0.00;;;;;;;;;;5091677;28;20048;-59
2023/08/08 10:20:17;;;;;;;0.00;0.00;;;;;;;;;;5092642;28;20116;-59
2023/08/08 10:22:46;;;;;;;0.00;0.00;;;;;;;;;;5092602;28;20093;-60
2023/08/08 10:25:18;;;;;;;0.00;0.00;;;;;;;;;;5092547;28;20052;-60
2023/08/08 10:27:46;;;;;;;0.00;0.00;;;;;;;;;;5092942;28;20437;-59
2023/08/08 10:30:14;;;;;;;0.00;0.00;;;;;;;;;;5092581;28;20540;-60
2023/08/08 10:32:41;;;;;;;0.00;0.00;;;;;;;;;;5092441;28;20047;-59
2023/08/08 10:35:12;;;;;;;0.00;0.00;;;;;;;;;;5092879;28;20491;-59
2023/08/08 10:37:39;;;;;;;0.00;0.00;;;;;;;;;;5092744;28;20064;-59
2023/08/08 10:40:08;;;;;;;0.00;0.00;;;;;;;;;;5092575;28;20040;-59
2023/08/08 10:42:42;;;;;;;0.00;0.00;;;;;;;;;;5091204;28;20135;-59
2023/08/08 10:45:10;;;;;;;0.00;0.00;;;;;;;;;;5091716;28;20504;-59
2023/08/08 10:47:37;;;;;;;0.00;0.00;;;;;;;;;;5092604;28;20096;-59
2023/08/08 10:50:06;;;;;;;0.00;0.00;;;;;;;;;;5092765;28;20126;-59
2023/08/08 10:52:38;;;;;;;0.00;0.00;;;;;;;;;;5092212;28;20127;-59
2023/08/08 10:55:06;;;;;;;0.00;0.00;;;;;;;;;;5092777;28;20134;-59
2023/08/08 10:57:33;;;;;;;0.00;0.00;;;;;;;;;;5092329;28;20046;-58
2023/08/08 11:00:15;;;;;;;0.13;0.00;;;;;;;;;;5091211;28;20048;-59
2023/08/08 11:02:42;;;;;;;0.00;0.00;;;;;;;;;;5092201;28;20044;-59
2023/08/08 11:05:09;;;;;;;0.00;0.00;;;;;;;;;;5092100;28;20080;-58
2023/08/08 11:07:38;;;;;;;0.00;0.00;;;;;;;;;;5091009;28;20352;-58
2023/08/08 11:10:05;;;;;;;0.10;0.10;;;;;;;;;;5092203;28;20047;-58
2023/08/08 11:12:33;;;;;;;0.00;0.00;;;;;;;;;;5092154;28;20033;-58
2023/08/08 11:15:00;;;;;;;0.00;0.00;;;;;;;;;;5092195;28;20130;-58
2023/08/08 11:17:27;;;;;;;0.00;0.00;;;;;;;;;;5092213;28;20089;-58
2023/08/08 11:19:54;;;;;;;0.00;0.00;;;;;;;;;;5090910;28;20380;-58
2023/08/08 11:22:22;;;;;;;0.00;0.00;;;;;;;;;;5091943;28;20087;-59
2023/08/08 11:24:51;;;;;;;0.00;0.00;;;;;;;;;;5091765;28;20048;-58
2023/08/08 11:27:18;;;;;;;0.00;0.00;;;;;;;;;;5092504;28;20082;-59
2023/08/08 11:29:50;;;;;;;0.00;0.00;;;;;;;;;;5091860;28;20372;-59
2023/08/08 11:32:17;;;;;;;0.00;0.00;;;;;;;;;;5093376;28;20039;-59
2023/08/08 11:34:44;;;;;;;0.00;0.00;;;;;;;;;;5095736;28;20044;-59
2023/08/08 11:37:11;;;;;;;0.00;0.00;;;;;;;;;;5095870;28;20046;-58
2023/08/08 11:39:39;;;;;;;0.00;0.00;;;;;;;;;;5095785;28;20051;-59
2023/08/08 11:42:07;;;;;;;0.00;0.00;;;;;;;;;;5096339;28;20114;-59
2023/08/08 11:44:34;;;;;;;0.00;0.00;;;;;;;;;;5095460;28;20133;-59
2023/08/08 11:47:01;;;;;;;0.00;0.00;;;;;;;;;;5094835;28;20040;-58
2023/08/08 11:49:29;;;;;;;0.00;0.00;;;;;;;;;;5095555;28;20105;-58
2023/08/08 11:51:56;;;;;;;0.00;0.00;;;;;;;;;;5095521;28;20046;-58
2023/08/08 11:54:23;;;;;;;0.00;0.00;;;;;;;;;;5095364;28;20062;-58
2023/08/08 11:56:50;;;;;;;0.00;0.00;;;;;;;;;;5096217;28;20044;-59
2023/08/08 11:59:21;;;;;;;0.00;0.00;;;;;;;;;;5095452;28;20180;-58
2023/08/08 12:01:50;;;;;;;0.00;0.00;;;;;;;;;;5095556;28;20048;-58
2023/08/08 12:04:17;;;;;;;0.00;0.00;;;;;;;;;;5095528;28;20048;-58
2023/08/08 12:06:44;;;;;;;0.00;0.00;;;;;;;;;;5095400;28;20498;-59
2023/08/08 12:09:13;;;;;;;0.00;0.00;;;;;;;;;;5095291;28;20051;-59
2023/08/08 12:11:40;;;;;;;0.00;0.00;;;;;;;;;;5095386;28;20040;-58
2023/08/08 12:14:08;;;;;;;0.00;0.00;;;;;;;;;;5095187;28;20564;-59
2023/08/08 12:16:38;;;;;;;0.00;0.00;;;;;;;;;;5095231;28;20044;-58
2023/08/08 12:19:06;;;;;;;0.00;0.00;;;;;;;;;;5095204;28;20059;-58
2023/08/08 12:21:36;;;;;;;0.00;0.00;;;;;;;;;;5095174;28;20125;-58
2023/08/08 12:24:08;;;;;;;0.00;0.00;;;;;;;;;;5095602;28;20048;-60
2023/08/08 12:26:35;;;;;;;0.00;0.00;;;;;;;;;;5095387;28;20495;-60
2023/08/08 12:29:02;;;;;;;0.00;0.00;;;;;;;;;;5094788;28;20044;-60
2023/08/08 12:31:29;;;;;;;0.00;0.00;;;;;;;;;;5094663;28;20114;-59
2023/08/08 12:33:57;;;;;;;0.00;0.00;;;;;;;;;;5093301;28;20150;-59
2023/08/08 12:36:24;;;;;;;0.00;0.00;;;;;;;;;;5094631;28;20475;-60
2023/08/08 12:38:52;;;;;;;0.03;0.00;;;;;;;;;;5094529;28;20143;-60
2023/08/08 12:41:19;;;;;;;0.00;0.00;;;;;;;;;;5094734;28;20044;-59
2023/08/08 12:43:46;;;;;;;0.00;0.00;;;;;;;;;;5094181;28;20094;-60
2023/08/08 12:46:13;;;;;;;0.00;0.00;;;;;;;;;;5094680;28;20047;-60
2023/08/08 12:48:40;;;;;;;0.00;0.00;;;;;;;;;;5094681;28;20488;-59
2023/08/08 12:51:08;;;;;;;0.05;0.05;;;;;;;;;;5093626;28;20048;-59
2023/08/08 12:53:35;;;;;;;0.00;0.00;;;;;;;;;;5094603;28;20093;-60
2023/08/08 12:56:03;;;;;;;0.00;0.00;;;;;;;;;;5094575;28;20060;-60
2023/08/08 12:58:30;;;;;;;0.00;0.00;;;;;;;;;;5094443;28;20098;-60
2023/08/08 13:00:57;;;;;;;0.00;0.00;;;;;;;;;;5094350;28;20056;-60
2023/08/08 13:03:24;;;;;;;0.00;0.00;;;;;;;;;;5094479;28;20044;-59
2023/08/08 13:05:52;;;;;;;0.00;0.00;;;;;;;;;;5094229;28;20138;-59
2023/08/08 13:08:20;;;;;;;0.00;0.00;;;;;;;;;;5094262;28;20525;-59
2023/08/08 13:10:47;;;;;;;0.00;0.00;;;;;;;;;;5109911;28;20036;-60
2023/08/08 13:13:14;;;;;;;0.00;0.00;;;;;;;;;;5094148;28;20040;-60
2023/08/08 13:15:41;;;;;;;0.00;0.00;;;;;;;;;;5093963;28;20582;-59
2023/08/08 13:18:08;;;;;;;0.00;0.00;;;;;;;;;;5094289;28;20110;-59
2023/08/08 13:20:35;;;;;;;0.00;0.00;;;;;;;;;;5092844;28;20376;-59
2023/08/08 13:23:04;;;;;;;0.00;0.00;;;;;;;;;;5093880;28;20474;-59
2023/08/08 13:25:34;;;;;;;0.00;0.00;;;;;;;;;;5094084;28;20056;-59
2023/08/08 13:28:02;;;;;;;0.00;0.00;;;;;;;;;;5093936;28;20056;-59
2023/08/08 13:30:29;;;;;;;0.00;0.00;;;;;;;;;;5093869;28;20453;-59
2023/08/08 13:32:57;;;;;;;0.00;0.00;;;;;;;;;;5094025;28;20036;-59
2023/08/08 13:35:24;;;;;;;0.00;0.00;;;;;;;;;;5093694;28;20044;-58
2023/08/08 13:37:52;;;;;;;0.00;0.00;;;;;;;;;;5093499;28;20051;-59
2023/08/08 13:40:19;;;;;;;0.00;0.00;;;;;;;;;;5093654;28;20111;-59
2023/08/08 13:42:47;;;;;;;0.00;0.00;;;;;;;;;;5092228;28;20048;-58
2023/08/08 13:45:15;;;;;;;0.00;0.00;;;;;;;;;;5093280;28;20556;-59
2023/08/08 13:47:42;;;;;;;0.10;0.05;;;;;;;;;;5108978;28;20071;-59
2023/08/08 13:50:09;;;;;;;0.00;0.00;;;;;;;;;;5093800;28;20067;-59
2023/08/08 13:52:36;;;;;;;0.00;0.00;;;;;;;;;;5093167;28;20044;-59
2023/08/08 13:55:03;;;;;;;0.00;0.00;;;;;;;;;;5092517;28;20080;-59
2023/08/08 13:57:30;;;;;;;0.00;0.00;;;;;;;;;;5093252;28;20219;-59
2023/08/08 13:59:59;;;;;;;0.00;0.00;;;;;;;;;;5093042;28;20097;-59
2023/08/08 14:02:26;;;;;;;0.00;0.00;;;;;;;;;;5093586;28;20040;-59
2023/08/08 14:04:53;;;;;;;0.00;0.00;;;;;;;;;;5093083;28;20090;-59
2023/08/08 14:07:22;;;;;;;0.00;0.00;;;;;;;;;;5093013;28;20050;-59
2023/08/08 14:09:49;;;;;;;0.00;0.00;;;;;;;;;;5093390;28;20500;-59
2023/08/08 14:12:16;;;;;;;0.00;0.00;;;;;;;;;;5093165;28;20481;-59
2023/08/08 14:14:45;;;;;;;0.00;0.00;;;;;;;;;;5092818;28;20044;-59
2023/08/08 14:17:15;;;;;;;0.00;0.00;;;;;;;;;;5074854;28;20101;-59
2023/08/08 14:19:42;;;;;;;0.00;0.00;;;;;;;;;;5092889;28;20051;-59
2023/08/08 14:22:10;;;;;;;0.00;0.00;;;;;;;;;;5093151;28;20050;-59
2023/08/08 14:24:37;;;;;;;0.00;0.00;;;;;;;;;;5092198;28;20055;-59
2023/08/08 14:27:04;;;;;;;0.00;0.00;;;;;;;;;;5092838;28;20495;-59
2023/08/08 14:29:35;;;;;;;0.00;0.00;;;;;;;;;;5092809;28;20113;-59
2023/08/08 14:32:02;;;;;;;0.00;0.00;;;;;;;;;;5092684;28;20067;-59
2023/08/08 14:34:31;;;;;;;0.00;0.00;;;;;;;;;;5108317;28;20047;-59
2023/08/08 14:36:58;;;;;;;0.00;0.00;;;;;;;;;;5092730;28;20056;-59
2023/08/08 14:39:26;;;;;;;0.00;0.00;;;;;;;;;;5092574;28;20123;-59
2023/08/08 14:41:53;;;;;;;0.00;0.00;;;;;;;;;;5092515;28;20491;-59
2023/08/08 14:44:20;;;;;;;0.00;0.00;;;;;;;;;;5092531;28;20071;-59
2023/08/08 14:46:47;;;;;;;0.00;0.00;;;;;;;;;;5092371;28;20052;-59
2023/08/08 14:49:14;;;;;;;0.00;0.00;;;;;;;;;;5092454;28;20119;-59
2023/08/08 14:51:42;;;;;;;0.00;0.00;;;;;;;;;;5074059;28;20126;-59
2023/08/08 14:54:13;;;;;;;0.00;0.00;;;;;;;;;;5092183;28;20044;-59